sensor_id;sensor_type;location;lat;lon;timestamp;P1;durP1;ratioP1;P2;durP2;ratioP2
74793;SDS011;63320;50.768;6.724;2023-02-28T00:00:05;9.93;;;3.53;;
74793;SDS011;63320;50.768;6.724;2023-02-28T00:02:32;9.60;;;2.70;;
74793;SDS011;63320;50.768;6.724;2023-02-28T00:04:57;7.10;;;3.05;;
74793;SDS011;63320;50.768;6.724;2023-02-28T00:07:24;6.30;;;2.70;;
74793;SDS011;63320;50.768;6.724;2023-02-28T00:09:49;7.05;;;3.08;;
74793;SDS011;63320;50.768;6.724;2023-02-28T00:12:14;10.25;;;3.53;;
74793;SDS011;63320;50.768;6.724;2023-02-28T00:14:40;5.95;;;2.90;;
74793;SDS011;63320;50.768;6.724;2023-02-28T00:17:05;7.70;;;2.90;;
74793;SDS011;63320;50.768;6.724;2023-02-28T00:19:30;8.43;;;3.00;;
74793;SDS011;63320;50.768;6.724;2023-02-28T00:21:56;7.72;;;2.60;;
74793;SDS011;63320;50.768;6.724;2023-02-28T00:24:22;8.18;;;2.92;;
74793;SDS011;63320;50.768;6.724;2023-02-28T00:26:48;8.43;;;3.00;;
74793;SDS011;63320;50.768;6.724;2023-02-28T00:29:13;6.80;;;3.00;;
74793;SDS011;63320;50.768;6.724;2023-02-28T00:31:38;6.05;;;2.83;;
74793;SDS011;63320;50.768;6.724;2023-02-28T00:34:04;7.55;;;2.95;;
74793;SDS011;63320;50.768;6.724;2023-02-28T00:36:29;7.07;;;2.83;;
74793;SDS011;63320;50.768;6.724;2023-02-28T00:38:54;6.75;;;2.78;;
74793;SDS011;63320;50.768;6.724;2023-02-28T00:41:21;6.43;;;2.63;;
74793;SDS011;63320;50.768;6.724;2023-02-28T00:43:46;7.97;;;2.67;;
74793;SDS011;63320;50.768;6.724;2023-02-28T00:46:12;7.80;;;2.47;;
74793;SDS011;63320;50.768;6.724;2023-02-28T00:48:37;10.38;;;3.00;;
74793;SDS011;63320;50.768;6.724;2023-02-28T00:51:02;6.72;;;3.33;;
74793;SDS011;63320;50.768;6.724;2023-02-28T00:53:28;7.22;;;3.22;;
74793;SDS011;63320;50.768;6.724;2023-02-28T00:55:54;6.35;;;2.47;;
74793;SDS011;63320;50.768;6.724;2023-02-28T00:58:20;9.45;;;2.85;;
74793;SDS011;63320;50.768;6.724;2023-02-28T01:00:46;7.88;;;2.80;;
74793;SDS011;63320;50.768;6.724;2023-02-28T01:03:11;6.57;;;2.38;;
74793;SDS011;63320;50.768;6.724;2023-02-28T01:05:37;6.63;;;2.58;;
74793;SDS011;63320;50.768;6.724;2023-02-28T01:08:02;7.55;;;2.47;;
74793;SDS011;63320;50.768;6.724;2023-02-28T01:10:28;6.65;;;2.47;;
74793;SDS011;63320;50.768;6.724;2023-02-28T01:12:53;7.25;;;2.50;;
74793;SDS011;63320;50.768;6.724;2023-02-28T01:15:20;7.15;;;2.50;;
74793;SDS011;63320;50.768;6.724;2023-02-28T01:17:45;8.77;;;2.78;;
74793;SDS011;63320;50.768;6.724;2023-02-28T01:20:11;6.00;;;2.63;;
74793;SDS011;63320;50.768;6.724;2023-02-28T01:22:36;7.70;;;2.42;;
74793;SDS011;63320;50.768;6.724;2023-02-28T01:25:02;8.43;;;2.38;;
74793;SDS011;63320;50.768;6.724;2023-02-28T01:27:27;6.40;;;2.72;;
74793;SDS011;63320;50.768;6.724;2023-02-28T01:29:53;5.45;;;2.40;;
74793;SDS011;63320;50.768;6.724;2023-02-28T01:32:19;7.30;;;2.72;;
74793;SDS011;63320;50.768;6.724;2023-02-28T01:34:45;6.43;;;2.58;;
74793;SDS011;63320;50.768;6.724;2023-02-28T01:37:10;5.50;;;2.30;;
74793;SDS011;63320;50.768;6.724;2023-02-28T01:39:35;7.20;;;2.55;;
74793;SDS011;63320;50.768;6.724;2023-02-28T01:42:01;7.70;;;2.40;;
74793;SDS011;63320;50.768;6.724;2023-02-28T01:47:23;7.20;;;2.97;;
74793;SDS011;63320;50.768;6.724;2023-02-28T01:49:50;8.15;;;2.42;;
74793;SDS011;63320;50.768;6.724;2023-02-28T01:52:17;5.80;;;2.42;;
74793;SDS011;63320;50.768;6.724;2023-02-28T01:54:43;6.25;;;2.30;;
74793;SDS011;63320;50.768;6.724;2023-02-28T01:57:11;5.13;;;2.30;;
74793;SDS011;63320;50.768;6.724;2023-02-28T01:59:40;4.85;;;2.25;;
74793;SDS011;63320;50.768;6.724;2023-02-28T02:02:11;6.75;;;2.05;;
74793;SDS011;63320;50.768;6.724;2023-02-28T02:04:38;7.05;;;2.35;;
74793;SDS011;63320;50.768;6.724;2023-02-28T02:07:08;6.80;;;2.20;;
74793;SDS011;63320;50.768;6.724;2023-02-28T02:09:34;6.53;;;2.30;;
74793;SDS011;63320;50.768;6.724;2023-02-28T02:12:00;6.00;;;2.15;;
74793;SDS011;63320;50.768;6.724;2023-02-28T02:14:49;6.30;;;2.28;;
74793;SDS011;63320;50.768;6.724;2023-02-28T02:17:25;7.10;;;2.63;;
74793;SDS011;63320;50.768;6.724;2023-02-28T02:23:21;8.15;;;2.22;;
74793;SDS011;63320;50.768;6.724;2023-02-28T02:26:11;7.35;;;2.00;;
74793;SDS011;63320;50.768;6.724;2023-02-28T02:29:09;6.93;;;2.65;;
74793;SDS011;63320;50.768;6.724;2023-02-28T02:32:02;5.78;;;2.30;;
74793;SDS011;63320;50.768;6.724;2023-02-28T02:34:48;7.32;;;2.47;;
74793;SDS011;63320;50.768;6.724;2023-02-28T02:37:24;6.70;;;2.20;;
74793;SDS011;63320;50.768;6.724;2023-02-28T02:39:56;4.93;;;1.80;;
74793;SDS011;63320;50.768;6.724;2023-02-28T02:42:27;5.93;;;2.33;;
74793;SDS011;63320;50.768;6.724;2023-02-28T02:44:59;7.65;;;1.85;;
74793;SDS011;63320;50.768;6.724;2023-02-28T02:47:29;5.45;;;1.98;;
74793;SDS011;63320;50.768;6.724;2023-02-28T02:49:58;7.15;;;2.20;;
74793;SDS011;63320;50.768;6.724;2023-02-28T02:52:29;8.15;;;2.30;;
74793;SDS011;63320;50.768;6.724;2023-02-28T02:55:00;5.93;;;1.92;;
74793;SDS011;63320;50.768;6.724;2023-02-28T02:57:30;6.65;;;1.73;;
74793;SDS011;63320;50.768;6.724;2023-02-28T03:02:25;6.43;;;2.25;;
74793;SDS011;63320;50.768;6.724;2023-02-28T03:04:56;4.13;;;1.63;;
74793;SDS011;63320;50.768;6.724;2023-02-28T03:07:26;5.05;;;1.98;;
74793;SDS011;63320;50.768;6.724;2023-02-28T03:09:51;6.20;;;1.90;;
74793;SDS011;63320;50.768;6.724;2023-02-28T03:12:17;7.45;;;2.30;;
74793;SDS011;63320;50.768;6.724;2023-02-28T03:14:47;6.30;;;2.00;;
74793;SDS011;63320;50.768;6.724;2023-02-28T03:20:03;6.78;;;2.15;;
74793;SDS011;63320;50.768;6.724;2023-02-28T03:22:36;6.20;;;1.95;;
74793;SDS011;63320;50.768;6.724;2023-02-28T03:25:12;7.78;;;2.20;;
74793;SDS011;63320;50.768;6.724;2023-02-28T03:27:42;7.47;;;2.50;;
74793;SDS011;63320;50.768;6.724;2023-02-28T03:30:19;5.75;;;2.22;;
74793;SDS011;63320;50.768;6.724;2023-02-28T03:32:51;5.38;;;2.08;;
74793;SDS011;63320;50.768;6.724;2023-02-28T03:35:22;7.70;;;2.00;;
74793;SDS011;63320;50.768;6.724;2023-02-28T03:37:52;4.85;;;2.10;;
74793;SDS011;63320;50.768;6.724;2023-02-28T03:40:21;9.82;;;2.40;;
74793;SDS011;63320;50.768;6.724;2023-02-28T03:42:50;5.88;;;2.35;;
74793;SDS011;63320;50.768;6.724;2023-02-28T03:45:21;6.22;;;2.08;;
74793;SDS011;63320;50.768;6.724;2023-02-28T03:47:50;6.90;;;2.20;;
74793;SDS011;63320;50.768;6.724;2023-02-28T03:50:18;6.20;;;2.20;;
74793;SDS011;63320;50.768;6.724;2023-02-28T03:52:49;8.35;;;2.40;;
74793;SDS011;63320;50.768;6.724;2023-02-28T03:55:18;7.03;;;2.20;;
74793;SDS011;63320;50.768;6.724;2023-02-28T03:57:48;5.30;;;2.17;;
74793;SDS011;63320;50.768;6.724;2023-02-28T04:00:24;8.07;;;2.05;;
74793;SDS011;63320;50.768;6.724;2023-02-28T04:02:52;5.50;;;2.38;;
74793;SDS011;63320;50.768;6.724;2023-02-28T04:05:18;5.20;;;2.03;;
74793;SDS011;63320;50.768;6.724;2023-02-28T04:07:45;6.50;;;1.88;;
74793;SDS011;63320;50.768;6.724;2023-02-28T04:10:11;5.22;;;1.98;;
74793;SDS011;63320;50.768;6.724;2023-02-28T04:12:36;5.68;;;2.17;;
74793;SDS011;63320;50.768;6.724;2023-02-28T04:15:02;4.20;;;2.10;;
74793;SDS011;63320;50.768;6.724;2023-02-28T04:17:27;7.15;;;2.00;;
74793;SDS011;63320;50.768;6.724;2023-02-28T04:19:53;4.65;;;1.92;;
74793;SDS011;63320;50.768;6.724;2023-02-28T04:22:18;4.97;;;1.83;;
74793;SDS011;63320;50.768;6.724;2023-02-28T04:24:45;6.03;;;2.25;;
74793;SDS011;63320;50.768;6.724;2023-02-28T04:27:10;5.50;;;2.00;;
74793;SDS011;63320;50.768;6.724;2023-02-28T04:29:36;5.63;;;2.10;;
74793;SDS011;63320;50.768;6.724;2023-02-28T04:32:01;5.47;;;2.38;;
74793;SDS011;63320;50.768;6.724;2023-02-28T04:34:28;4.78;;;2.40;;
74793;SDS011;63320;50.768;6.724;2023-02-28T04:36:55;6.35;;;2.28;;
74793;SDS011;63320;50.768;6.724;2023-02-28T04:39:21;8.73;;;2.45;;
74793;SDS011;63320;50.768;6.724;2023-02-28T04:41:48;5.03;;;2.10;;
74793;SDS011;63320;50.768;6.724;2023-02-28T04:44:14;5.60;;;2.38;;
74793;SDS011;63320;50.768;6.724;2023-02-28T04:46:40;5.43;;;2.20;;
74793;SDS011;63320;50.768;6.724;2023-02-28T04:49:06;6.93;;;2.42;;
74793;SDS011;63320;50.768;6.724;2023-02-28T04:51:31;5.03;;;1.90;;
74793;SDS011;63320;50.768;6.724;2023-02-28T04:53:56;8.07;;;2.97;;
74793;SDS011;63320;50.768;6.724;2023-02-28T04:56:22;6.03;;;2.65;;
74793;SDS011;63320;50.768;6.724;2023-02-28T04:58:49;5.80;;;2.65;;
74793;SDS011;63320;50.768;6.724;2023-02-28T05:01:16;6.55;;;2.45;;
74793;SDS011;63320;50.768;6.724;2023-02-28T05:03:44;5.47;;;2.63;;
74793;SDS011;63320;50.768;6.724;2023-02-28T05:06:09;8.25;;;2.53;;
74793;SDS011;63320;50.768;6.724;2023-02-28T05:08:36;7.95;;;2.50;;
74793;SDS011;63320;50.768;6.724;2023-02-28T05:11:01;9.07;;;2.50;;
74793;SDS011;63320;50.768;6.724;2023-02-28T05:13:28;6.75;;;2.33;;
74793;SDS011;63320;50.768;6.724;2023-02-28T05:15:55;6.88;;;2.15;;
74793;SDS011;63320;50.768;6.724;2023-02-28T05:18:20;6.45;;;2.30;;
74793;SDS011;63320;50.768;6.724;2023-02-28T05:20:46;8.38;;;2.40;;
74793;SDS011;63320;50.768;6.724;2023-02-28T05:23:12;5.88;;;2.00;;
74793;SDS011;63320;50.768;6.724;2023-02-28T05:25:38;8.13;;;2.45;;
74793;SDS011;63320;50.768;6.724;2023-02-28T05:28:04;10.13;;;2.55;;
74793;SDS011;63320;50.768;6.724;2023-02-28T05:30:30;5.80;;;2.30;;
74793;SDS011;63320;50.768;6.724;2023-02-28T05:32:58;5.53;;;2.00;;
74793;SDS011;63320;50.768;6.724;2023-02-28T05:35:23;7.60;;;2.17;;
74793;SDS011;63320;50.768;6.724;2023-02-28T05:37:49;5.47;;;1.90;;
74793;SDS011;63320;50.768;6.724;2023-02-28T05:40:14;6.15;;;2.08;;
74793;SDS011;63320;50.768;6.724;2023-02-28T05:42:40;5.03;;;1.92;;
74793;SDS011;63320;50.768;6.724;2023-02-28T05:45:07;4.97;;;2.10;;
74793;SDS011;63320;50.768;6.724;2023-02-28T05:47:33;5.65;;;2.17;;
74793;SDS011;63320;50.768;6.724;2023-02-28T05:50:00;6.57;;;2.42;;
74793;SDS011;63320;50.768;6.724;2023-02-28T05:52:25;4.78;;;1.98;;
74793;SDS011;63320;50.768;6.724;2023-02-28T05:54:50;8.10;;;2.45;;
74793;SDS011;63320;50.768;6.724;2023-02-28T05:57:16;7.22;;;2.38;;
74793;SDS011;63320;50.768;6.724;2023-02-28T05:59:41;4.50;;;2.05;;
74793;SDS011;63320;50.768;6.724;2023-02-28T06:02:07;6.65;;;1.95;;
74793;SDS011;63320;50.768;6.724;2023-02-28T06:04:37;6.38;;;2.13;;
74793;SDS011;63320;50.768;6.724;2023-02-28T06:07:03;6.60;;;2.67;;
74793;SDS011;63320;50.768;6.724;2023-02-28T06:09:29;5.35;;;2.33;;
74793;SDS011;63320;50.768;6.724;2023-02-28T06:11:54;6.25;;;2.10;;
74793;SDS011;63320;50.768;6.724;2023-02-28T06:14:20;5.50;;;2.40;;
74793;SDS011;63320;50.768;6.724;2023-02-28T06:16:46;4.40;;;2.17;;
74793;SDS011;63320;50.768;6.724;2023-02-28T06:19:12;8.05;;;2.17;;
74793;SDS011;63320;50.768;6.724;2023-02-28T06:21:37;6.63;;;1.92;;
74793;SDS011;63320;50.768;6.724;2023-02-28T06:24:04;5.68;;;2.33;;
74793;SDS011;63320;50.768;6.724;2023-02-28T06:26:30;5.25;;;2.20;;
74793;SDS011;63320;50.768;6.724;2023-02-28T06:28:56;6.45;;;2.22;;
74793;SDS011;63320;50.768;6.724;2023-02-28T06:31:21;6.82;;;2.38;;
74793;SDS011;63320;50.768;6.724;2023-02-28T06:33:47;5.22;;;2.58;;
74793;SDS011;63320;50.768;6.724;2023-02-28T06:36:14;10.18;;;3.78;;
74793;SDS011;63320;50.768;6.724;2023-02-28T06:38:40;7.90;;;3.28;;
74793;SDS011;63320;50.768;6.724;2023-02-28T06:41:08;8.15;;;2.67;;
74793;SDS011;63320;50.768;6.724;2023-02-28T06:43:34;8.25;;;2.90;;
74793;SDS011;63320;50.768;6.724;2023-02-28T06:46:02;7.78;;;2.80;;
74793;SDS011;63320;50.768;6.724;2023-02-28T06:48:30;9.43;;;3.80;;
74793;SDS011;63320;50.768;6.724;2023-02-28T06:51:01;11.95;;;5.32;;
74793;SDS011;63320;50.768;6.724;2023-02-28T06:53:27;10.75;;;5.30;;
74793;SDS011;63320;50.768;6.724;2023-02-28T06:55:53;10.88;;;4.25;;
74793;SDS011;63320;50.768;6.724;2023-02-28T06:58:19;11.38;;;4.60;;
74793;SDS011;63320;50.768;6.724;2023-02-28T07:00:45;11.32;;;3.10;;
74793;SDS011;63320;50.768;6.724;2023-02-28T07:03:10;10.18;;;3.15;;
74793;SDS011;63320;50.768;6.724;2023-02-28T07:05:37;6.63;;;2.88;;
74793;SDS011;63320;50.768;6.724;2023-02-28T07:08:04;7.68;;;2.83;;
74793;SDS011;63320;50.768;6.724;2023-02-28T07:10:30;6.65;;;3.45;;
74793;SDS011;63320;50.768;6.724;2023-02-28T07:12:55;6.82;;;2.65;;
74793;SDS011;63320;50.768;6.724;2023-02-28T07:15:22;7.10;;;2.95;;
74793;SDS011;63320;50.768;6.724;2023-02-28T07:17:48;5.40;;;2.60;;
74793;SDS011;63320;50.768;6.724;2023-02-28T07:20:13;9.68;;;3.00;;
74793;SDS011;63320;50.768;6.724;2023-02-28T07:22:38;7.88;;;2.78;;
74793;SDS011;63320;50.768;6.724;2023-02-28T07:25:04;9.88;;;3.05;;
74793;SDS011;63320;50.768;6.724;2023-02-28T07:27:30;10.23;;;2.88;;
74793;SDS011;63320;50.768;6.724;2023-02-28T07:29:55;8.45;;;2.90;;
74793;SDS011;63320;50.768;6.724;2023-02-28T07:32:22;8.25;;;3.00;;
74793;SDS011;63320;50.768;6.724;2023-02-28T07:34:47;13.90;;;3.30;;
74793;SDS011;63320;50.768;6.724;2023-02-28T07:37:12;6.70;;;2.90;;
74793;SDS011;63320;50.768;6.724;2023-02-28T07:39:38;6.68;;;2.78;;
74793;SDS011;63320;50.768;6.724;2023-02-28T07:42:04;6.50;;;3.10;;
74793;SDS011;63320;50.768;6.724;2023-02-28T07:44:29;7.10;;;2.50;;
74793;SDS011;63320;50.768;6.724;2023-02-28T07:46:55;7.30;;;2.50;;
74793;SDS011;63320;50.768;6.724;2023-02-28T07:49:21;6.60;;;2.42;;
74793;SDS011;63320;50.768;6.724;2023-02-28T07:51:47;7.28;;;2.33;;
74793;SDS011;63320;50.768;6.724;2023-02-28T07:54:12;5.35;;;2.40;;
74793;SDS011;63320;50.768;6.724;2023-02-28T07:56:37;7.53;;;2.30;;
74793;SDS011;63320;50.768;6.724;2023-02-28T07:59:03;5.47;;;2.22;;
74793;SDS011;63320;50.768;6.724;2023-02-28T08:01:28;6.80;;;2.50;;
74793;SDS011;63320;50.768;6.724;2023-02-28T08:03:53;5.53;;;2.35;;
74793;SDS011;63320;50.768;6.724;2023-02-28T08:06:21;5.45;;;2.28;;
74793;SDS011;63320;50.768;6.724;2023-02-28T08:08:48;6.43;;;2.20;;
74793;SDS011;63320;50.768;6.724;2023-02-28T08:11:14;6.32;;;2.53;;
74793;SDS011;63320;50.768;6.724;2023-02-28T08:13:40;17.95;;;2.67;;
74793;SDS011;63320;50.768;6.724;2023-02-28T08:16:06;7.00;;;3.20;;
74793;SDS011;63320;50.768;6.724;2023-02-28T08:18:32;5.72;;;2.00;;
74793;SDS011;63320;50.768;6.724;2023-02-28T08:20:57;6.38;;;2.05;;
74793;SDS011;63320;50.768;6.724;2023-02-28T08:23:24;4.53;;;1.70;;
74793;SDS011;63320;50.768;6.724;2023-02-28T08:25:52;4.80;;;1.50;;
74793;SDS011;63320;50.768;6.724;2023-02-28T08:28:18;4.55;;;1.65;;
74793;SDS011;63320;50.768;6.724;2023-02-28T08:30:43;6.05;;;1.75;;
74793;SDS011;63320;50.768;6.724;2023-02-28T08:33:09;4.15;;;1.73;;
74793;SDS011;63320;50.768;6.724;2023-02-28T08:35:35;4.90;;;1.73;;
74793;SDS011;63320;50.768;6.724;2023-02-28T08:38:01;4.00;;;1.65;;
74793;SDS011;63320;50.768;6.724;2023-02-28T08:40:27;6.90;;;1.58;;
74793;SDS011;63320;50.768;6.724;2023-02-28T08:42:53;3.75;;;1.60;;
74793;SDS011;63320;50.768;6.724;2023-02-28T08:45:18;12.55;;;2.10;;
74793;SDS011;63320;50.768;6.724;2023-02-28T08:47:43;4.45;;;1.77;;
74793;SDS011;63320;50.768;6.724;2023-02-28T08:50:09;3.80;;;1.67;;
74793;SDS011;63320;50.768;6.724;2023-02-28T08:52:35;6.38;;;1.92;;
74793;SDS011;63320;50.768;6.724;2023-02-28T08:55:00;5.47;;;1.90;;
74793;SDS011;63320;50.768;6.724;2023-02-28T08:57:27;7.78;;;2.67;;
74793;SDS011;63320;50.768;6.724;2023-02-28T08:59:52;5.63;;;1.60;;
74793;SDS011;63320;50.768;6.724;2023-02-28T09:02:18;4.45;;;1.63;;
74793;SDS011;63320;50.768;6.724;2023-02-28T09:04:43;5.45;;;1.67;;
74793;SDS011;63320;50.768;6.724;2023-02-28T09:07:09;5.07;;;1.60;;
74793;SDS011;63320;50.768;6.724;2023-02-28T09:09:34;4.13;;;1.50;;
74793;SDS011;63320;50.768;6.724;2023-02-28T09:12:00;3.40;;;1.38;;
74793;SDS011;63320;50.768;6.724;2023-02-28T09:14:26;3.25;;;1.30;;
74793;SDS011;63320;50.768;6.724;2023-02-28T09:16:52;4.68;;;1.70;;
74793;SDS011;63320;50.768;6.724;2023-02-28T09:19:17;3.33;;;1.48;;
74793;SDS011;63320;50.768;6.724;2023-02-28T09:21:42;3.63;;;1.52;;
74793;SDS011;63320;50.768;6.724;2023-02-28T09:24:08;4.53;;;1.50;;
74793;SDS011;63320;50.768;6.724;2023-02-28T09:26:33;3.85;;;1.50;;
74793;SDS011;63320;50.768;6.724;2023-02-28T09:28:58;6.32;;;2.60;;
74793;SDS011;63320;50.768;6.724;2023-02-28T09:31:25;5.45;;;1.70;;
74793;SDS011;63320;50.768;6.724;2023-02-28T09:33:53;3.83;;;1.63;;
74793;SDS011;63320;50.768;6.724;2023-02-28T09:36:20;4.28;;;1.58;;
74793;SDS011;63320;50.768;6.724;2023-02-28T09:38:46;4.57;;;1.60;;
74793;SDS011;63320;50.768;6.724;2023-02-28T09:41:13;3.92;;;1.60;;
74793;SDS011;63320;50.768;6.724;2023-02-28T09:43:40;4.60;;;1.50;;
74793;SDS011;63320;50.768;6.724;2023-02-28T09:46:12;4.72;;;1.30;;
74793;SDS011;63320;50.768;6.724;2023-02-28T09:48:47;4.70;;;1.50;;
74793;SDS011;63320;50.768;6.724;2023-02-28T09:51:16;4.75;;;1.95;;
74793;SDS011;63320;50.768;6.724;2023-02-28T09:53:52;4.40;;;1.67;;
74793;SDS011;63320;50.768;6.724;2023-02-28T09:56:19;4.53;;;1.50;;
74793;SDS011;63320;50.768;6.724;2023-02-28T09:58:49;5.07;;;1.70;;
74793;SDS011;63320;50.768;6.724;2023-02-28T10:01:19;4.50;;;1.77;;
74793;SDS011;63320;50.768;6.724;2023-02-28T10:03:52;6.63;;;2.30;;
74793;SDS011;63320;50.768;6.724;2023-02-28T10:06:22;5.47;;;1.55;;
74793;SDS011;63320;50.768;6.724;2023-02-28T10:08:55;4.00;;;1.42;;
74793;SDS011;63320;50.768;6.724;2023-02-28T10:11:25;3.63;;;1.60;;
74793;SDS011;63320;50.768;6.724;2023-02-28T10:13:53;3.67;;;1.60;;
74793;SDS011;63320;50.768;6.724;2023-02-28T10:16:22;4.20;;;1.48;;
74793;SDS011;63320;50.768;6.724;2023-02-28T10:18:56;3.53;;;1.35;;
74793;SDS011;63320;50.768;6.724;2023-02-28T10:21:26;3.05;;;1.40;;
74793;SDS011;63320;50.768;6.724;2023-02-28T10:23:57;6.10;;;1.50;;
74793;SDS011;63320;50.768;6.724;2023-02-28T10:26:27;6.60;;;2.00;;
74793;SDS011;63320;50.768;6.724;2023-02-28T10:28:54;6.15;;;1.63;;
74793;SDS011;63320;50.768;6.724;2023-02-28T10:31:20;4.60;;;1.65;;
74793;SDS011;63320;50.768;6.724;2023-02-28T10:33:46;4.47;;;1.80;;
74793;SDS011;63320;50.768;6.724;2023-02-28T10:36:14;4.47;;;1.58;;
74793;SDS011;63320;50.768;6.724;2023-02-28T10:38:42;4.25;;;1.70;;
74793;SDS011;63320;50.768;6.724;2023-02-28T10:41:09;4.85;;;1.67;;
74793;SDS011;63320;50.768;6.724;2023-02-28T10:43:36;4.07;;;1.60;;
74793;SDS011;63320;50.768;6.724;2023-02-28T10:46:04;4.40;;;1.55;;
74793;SDS011;63320;50.768;6.724;2023-02-28T10:48:36;4.10;;;1.67;;
74793;SDS011;63320;50.768;6.724;2023-02-28T10:51:03;3.78;;;1.55;;
74793;SDS011;63320;50.768;6.724;2023-02-28T10:53:35;5.97;;;2.22;;
74793;SDS011;63320;50.768;6.724;2023-02-28T10:56:05;5.88;;;2.03;;
74793;SDS011;63320;50.768;6.724;2023-02-28T10:58:47;4.35;;;1.67;;
74793;SDS011;63320;50.768;6.724;2023-02-28T11:01:15;4.63;;;1.75;;
74793;SDS011;63320;50.768;6.724;2023-02-28T11:03:43;5.00;;;1.60;;
74793;SDS011;63320;50.768;6.724;2023-02-28T11:06:12;4.68;;;1.70;;
74793;SDS011;63320;50.768;6.724;2023-02-28T11:08:46;5.90;;;1.90;;
74793;SDS011;63320;50.768;6.724;2023-02-28T11:11:14;5.43;;;1.83;;
74793;SDS011;63320;50.768;6.724;2023-02-28T11:13:40;7.13;;;2.00;;
74793;SDS011;63320;50.768;6.724;2023-02-28T11:16:06;3.72;;;1.73;;
74793;SDS011;63320;50.768;6.724;2023-02-28T11:18:36;5.18;;;2.17;;
74793;SDS011;63320;50.768;6.724;2023-02-28T11:21:07;4.65;;;2.33;;
74793;SDS011;63320;50.768;6.724;2023-02-28T11:23:34;5.03;;;1.90;;
74793;SDS011;63320;50.768;6.724;2023-02-28T11:26:03;6.72;;;1.65;;
74793;SDS011;63320;50.768;6.724;2023-02-28T11:28:30;3.92;;;1.63;;
74793;SDS011;63320;50.768;6.724;2023-02-28T11:31:00;6.38;;;2.10;;
74793;SDS011;63320;50.768;6.724;2023-02-28T11:33:30;5.90;;;2.47;;
74793;SDS011;63320;50.768;6.724;2023-02-28T11:35:57;7.18;;;2.20;;
74793;SDS011;63320;50.768;6.724;2023-02-28T11:38:25;5.70;;;2.00;;
74793;SDS011;63320;50.768;6.724;2023-02-28T11:40:55;6.35;;;2.78;;
74793;SDS011;63320;50.768;6.724;2023-02-28T11:43:38;6.75;;;2.60;;
74793;SDS011;63320;50.768;6.724;2023-02-28T11:46:18;4.78;;;1.63;;
74793;SDS011;63320;50.768;6.724;2023-02-28T11:48:54;5.65;;;2.22;;
74793;SDS011;63320;50.768;6.724;2023-02-28T11:51:28;4.22;;;1.85;;
74793;SDS011;63320;50.768;6.724;2023-02-28T11:54:11;4.18;;;1.85;;
74793;SDS011;63320;50.768;6.724;2023-02-28T11:56:50;3.85;;;1.77;;
74793;SDS011;63320;50.768;6.724;2023-02-28T11:59:28;4.40;;;1.60;;
74793;SDS011;63320;50.768;6.724;2023-02-28T12:02:16;6.50;;;1.98;;
74793;SDS011;63320;50.768;6.724;2023-02-28T12:04:51;3.60;;;1.70;;
74793;SDS011;63320;50.768;6.724;2023-02-28T12:07:29;6.00;;;1.88;;
74793;SDS011;63320;50.768;6.724;2023-02-28T12:10:04;4.38;;;1.50;;
74793;SDS011;63320;50.768;6.724;2023-02-28T12:12:41;5.10;;;1.77;;
74793;SDS011;63320;50.768;6.724;2023-02-28T12:18:33;4.65;;;1.92;;
74793;SDS011;63320;50.768;6.724;2023-02-28T12:21:14;3.88;;;1.60;;
74793;SDS011;63320;50.768;6.724;2023-02-28T12:23:54;4.57;;;1.58;;
74793;SDS011;63320;50.768;6.724;2023-02-28T12:26:30;3.55;;;1.50;;
74793;SDS011;63320;50.768;6.724;2023-02-28T12:29:04;6.75;;;2.10;;
74793;SDS011;63320;50.768;6.724;2023-02-28T12:31:38;4.28;;;1.83;;
74793;SDS011;63320;50.768;6.724;2023-02-28T12:34:08;3.60;;;1.60;;
74793;SDS011;63320;50.768;6.724;2023-02-28T12:36:37;4.78;;;1.73;;
74793;SDS011;63320;50.768;6.724;2023-02-28T12:39:04;4.68;;;1.50;;
74793;SDS011;63320;50.768;6.724;2023-02-28T12:41:34;8.52;;;2.08;;
74793;SDS011;63320;50.768;6.724;2023-02-28T12:44:07;5.15;;;1.90;;
74793;SDS011;63320;50.768;6.724;2023-02-28T12:46:38;4.25;;;1.50;;
74793;SDS011;63320;50.768;6.724;2023-02-28T12:49:08;11.07;;;2.38;;
74793;SDS011;63320;50.768;6.724;2023-02-28T12:54:04;6.40;;;1.70;;
74793;SDS011;63320;50.768;6.724;2023-02-28T12:56:39;5.70;;;1.60;;
74793;SDS011;63320;50.768;6.724;2023-02-28T12:59:13;4.63;;;1.88;;
74793;SDS011;63320;50.768;6.724;2023-02-28T13:01:48;6.82;;;2.10;;
74793;SDS011;63320;50.768;6.724;2023-02-28T13:04:38;4.75;;;1.70;;
74793;SDS011;63320;50.768;6.724;2023-02-28T13:10:11;6.45;;;2.05;;
74793;SDS011;63320;50.768;6.724;2023-02-28T13:12:38;7.35;;;2.17;;
74793;SDS011;63320;50.768;6.724;2023-02-28T13:15:18;3.78;;;1.67;;
74793;SDS011;63320;50.768;6.724;2023-02-28T13:17:46;4.93;;;2.30;;
74793;SDS011;63320;50.768;6.724;2023-02-28T13:20:15;5.82;;;2.13;;
74793;SDS011;63320;50.768;6.724;2023-02-28T13:22:42;7.95;;;2.33;;
74793;SDS011;63320;50.768;6.724;2023-02-28T13:31:14;9.02;;;2.50;;
74793;SDS011;63320;50.768;6.724;2023-02-28T13:36:30;8.60;;;2.63;;
74793;SDS011;63320;50.768;6.724;2023-02-28T13:38:56;5.38;;;2.22;;
74793;SDS011;63320;50.768;6.724;2023-02-28T13:44:11;3.97;;;2.13;;
74793;SDS011;63320;50.768;6.724;2023-02-28T13:49:30;6.50;;;2.45;;
74793;SDS011;63320;50.768;6.724;2023-02-28T13:52:02;7.40;;;2.10;;
74793;SDS011;63320;50.768;6.724;2023-02-28T13:54:39;6.75;;;2.60;;
74793;SDS011;63320;50.768;6.724;2023-02-28T13:57:21;9.07;;;4.10;;
74793;SDS011;63320;50.768;6.724;2023-02-28T13:59:55;7.38;;;2.55;;
74793;SDS011;63320;50.768;6.724;2023-02-28T14:02:40;5.93;;;2.10;;
74793;SDS011;63320;50.768;6.724;2023-02-28T14:05:15;7.40;;;2.17;;
74793;SDS011;63320;50.768;6.724;2023-02-28T14:07:43;6.45;;;2.30;;
74793;SDS011;63320;50.768;6.724;2023-02-28T14:10:19;5.18;;;2.75;;
74793;SDS011;63320;50.768;6.724;2023-02-28T14:12:56;6.35;;;2.40;;
74793;SDS011;63320;50.768;6.724;2023-02-28T14:15:27;4.45;;;2.00;;
74793;SDS011;63320;50.768;6.724;2023-02-28T14:18:01;4.85;;;2.05;;
74793;SDS011;63320;50.768;6.724;2023-02-28T14:20:31;5.00;;;2.42;;
74793;SDS011;63320;50.768;6.724;2023-02-28T14:23:00;5.75;;;2.30;;
74793;SDS011;63320;50.768;6.724;2023-02-28T14:25:35;5.88;;;2.28;;
74793;SDS011;63320;50.768;6.724;2023-02-28T14:28:09;5.30;;;2.30;;
74793;SDS011;63320;50.768;6.724;2023-02-28T14:30:57;6.05;;;2.63;;
74793;SDS011;63320;50.768;6.724;2023-02-28T14:33:32;5.55;;;2.47;;
74793;SDS011;63320;50.768;6.724;2023-02-28T14:36:12;7.45;;;2.50;;
74793;SDS011;63320;50.768;6.724;2023-02-28T14:38:45;5.53;;;2.55;;
74793;SDS011;63320;50.768;6.724;2023-02-28T14:41:18;5.93;;;2.50;;
74793;SDS011;63320;50.768;6.724;2023-02-28T14:43:49;5.22;;;2.53;;
74793;SDS011;63320;50.768;6.724;2023-02-28T14:46:17;14.05;;;2.80;;
74793;SDS011;63320;50.768;6.724;2023-02-28T14:48:44;5.07;;;2.42;;
74793;SDS011;63320;50.768;6.724;2023-02-28T14:51:12;5.38;;;3.10;;
74793;SDS011;63320;50.768;6.724;2023-02-28T14:53:43;9.85;;;5.00;;
74793;SDS011;63320;50.768;6.724;2023-02-28T14:56:17;8.50;;;3.40;;
74793;SDS011;63320;50.768;6.724;2023-02-28T14:58:50;6.32;;;3.28;;
74793;SDS011;63320;50.768;6.724;2023-02-28T15:01:19;6.78;;;3.80;;
74793;SDS011;63320;50.768;6.724;2023-02-28T15:03:45;7.38;;;4.35;;
74793;SDS011;63320;50.768;6.724;2023-02-28T15:06:13;8.00;;;4.63;;
74793;SDS011;63320;50.768;6.724;2023-02-28T15:08:40;8.93;;;5.10;;
74793;SDS011;63320;50.768;6.724;2023-02-28T15:11:06;6.05;;;3.20;;
74793;SDS011;63320;50.768;6.724;2023-02-28T15:13:35;6.47;;;2.97;;
74793;SDS011;63320;50.768;6.724;2023-02-28T15:16:02;6.13;;;3.22;;
74793;SDS011;63320;50.768;6.724;2023-02-28T15:18:31;7.03;;;3.72;;
74793;SDS011;63320;50.768;6.724;2023-02-28T15:21:04;6.40;;;3.63;;
74793;SDS011;63320;50.768;6.724;2023-02-28T15:23:33;8.43;;;4.40;;
74793;SDS011;63320;50.768;6.724;2023-02-28T15:26:01;10.00;;;4.15;;
74793;SDS011;63320;50.768;6.724;2023-02-28T15:28:27;8.70;;;4.45;;
74793;SDS011;63320;50.768;6.724;2023-02-28T15:30:55;11.65;;;5.70;;